createdAt,value
2023-03-15T00:00:31.464Z,2.73
2023-03-15T00:03:04.113Z,2.80
2023-03-15T00:05:33.080Z,2.81
2023-03-15T00:08:04.371Z,2.78
2023-03-15T00:10:32.955Z,2.73
2023-03-15T00:13:02.081Z,2.63
2023-03-15T00:15:31.041Z,2.70
2023-03-15T00:18:03.241Z,2.79
2023-03-15T00:20:31.644Z,2.61
2023-03-15T00:23:00.574Z,2.56
2023-03-15T00:25:29.581Z,2.52
2023-03-15T00:27:57.830Z,2.43
2023-03-15T00:30:26.840Z,2.52
2023-03-15T00:32:55.575Z,2.43
2023-03-15T00:35:26.103Z,2.28
2023-03-15T00:37:56.944Z,1.98
2023-03-15T00:40:26.216Z,1.85
2023-03-15T00:42:54.562Z,1.71
2023-03-15T00:45:23.997Z,1.46
2023-03-15T00:47:54.094Z,1.49
2023-03-15T00:50:25.124Z,1.49
2023-03-15T00:52:53.436Z,1.40
2023-03-15T00:55:23.305Z,1.33
2023-03-15T00:57:52.033Z,1.18
2023-03-15T01:00:25.111Z,1.19
2023-03-15T01:02:55.375Z,0.95
2023-03-15T01:05:26.412Z,0.96
2023-03-15T01:07:54.826Z,1.05
2023-03-15T01:10:23.107Z,1.02
2023-03-15T01:12:51.521Z,1.12
2023-03-15T01:15:20.041Z,0.96
2023-03-15T01:17:48.682Z,1.03
2023-03-15T01:20:17.421Z,0.98
2023-03-15T01:22:47.094Z,0.93
2023-03-15T01:25:16.444Z,0.84
2023-03-15T01:27:46.213Z,0.75
2023-03-15T01:30:14.960Z,0.78
2023-03-15T01:32:43.254Z,0.78
2023-03-15T01:35:12.287Z,0.75
2023-03-15T01:37:41.139Z,0.74
2023-03-15T01:40:15.247Z,0.91
2023-03-15T01:43:16.459Z,0.85
2023-03-15T01:46:19.068Z,0.91
2023-03-15T01:48:54.615Z,0.66
2023-03-15T01:51:35.581Z,0.73
2023-03-15T01:54:10.701Z,0.69
2023-03-15T01:56:49.537Z,0.56
2023-03-15T01:59:25.118Z,0.43
2023-03-15T02:01:56.406Z,0.35
2023-03-15T02:04:31.862Z,0.37
2023-03-15T02:07:04.767Z,0.45
2023-03-15T02:09:43.771Z,0.47
2023-03-15T02:12:13.739Z,0.43
2023-03-15T02:14:44.145Z,0.50
2023-03-15T02:17:16.254Z,0.57
2023-03-15T02:19:58.223Z,0.66
2023-03-15T02:22:43.750Z,0.63
2023-03-15T02:25:23.684Z,0.70
2023-03-15T02:27:53.668Z,0.65
2023-03-15T02:30:22.340Z,0.76
2023-03-15T02:32:51.710Z,0.79
2023-03-15T02:35:29.003Z,0.69
2023-03-15T02:37:57.676Z,0.57
2023-03-15T02:40:30.410Z,0.39
2023-03-15T02:43:06.827Z,0.37
2023-03-15T02:45:38.278Z,0.37
2023-03-15T02:48:08.649Z,0.40
2023-03-15T02:50:38.470Z,0.24
2023-03-15T02:53:07.120Z,0.31
2023-03-15T02:55:35.617Z,0.16
2023-03-15T02:58:05.584Z,0.24
2023-03-15T03:00:34.341Z,0.30
2023-03-15T03:03:02.839Z,0.29
2023-03-15T03:05:31.194Z,0.22
2023-03-15T03:07:59.859Z,0.11
2023-03-15T03:10:28.242Z,0.23
2023-03-15T03:12:59.298Z,0.20
2023-03-15T03:15:38.820Z,0.09
2023-03-15T03:18:07.531Z,0.14
2023-03-15T03:20:36.248Z,0.20
2023-03-15T03:23:06.131Z,0.16
2023-03-15T03:25:36.790Z,0.09
2023-03-15T03:28:05.388Z,0.06
2023-03-15T03:30:38.213Z,0.21
2023-03-15T03:33:06.729Z,0.06
2023-03-15T03:35:35.936Z,0.03
2023-03-15T03:38:05.915Z,0.21
2023-03-15T03:40:39.190Z,0.17
2023-03-15T03:43:10.613Z,0.16
2023-03-15T03:45:40.483Z,0.06
2023-03-15T03:48:10.710Z,0.01
2023-03-15T03:50:39.057Z,0.15
2023-03-15T03:53:07.325Z,-0.01
2023-03-15T03:55:36.638Z,0.11
2023-03-15T03:58:05.023Z,0.15
2023-03-15T04:00:57.287Z,0.24
2023-03-15T04:03:28.364Z,0.33
2023-03-15T04:06:06.498Z,0.28
2023-03-15T04:08:39.258Z,0.21
2023-03-15T04:11:09.168Z,0.20
2023-03-15T04:13:40.183Z,0.20
2023-03-15T04:16:10.400Z,0.25
2023-03-15T04:18:56.657Z,0.16
2023-03-15T04:21:25.499Z,0.16
2023-03-15T04:24:00.564Z,0.03
2023-03-15T04:27:07.178Z,0.01
2023-03-15T04:30:05.846Z,0.04
2023-03-15T04:32:59.980Z,0.02
2023-03-15T04:35:55.477Z,0.08
2023-03-15T04:38:46.548Z,0.04
2023-03-15T04:41:29.193Z,0.07
2023-03-15T04:44:06.587Z,-0.09
2023-03-15T04:46:55.835Z,-0.16
2023-03-15T04:49:44.276Z,-0.27
2023-03-15T04:52:31.437Z,-0.22
2023-03-15T04:55:13.303Z,-0.32
2023-03-15T04:58:00.118Z,-0.32
2023-03-15T05:00:49.030Z,-0.34
2023-03-15T05:03:36.017Z,-0.49
2023-03-15T05:06:24.843Z,-0.45
2023-03-15T05:09:19.717Z,-0.54
2023-03-15T05:12:14.609Z,-0.48
2023-03-15T05:15:05.443Z,-0.68
2023-03-15T05:17:55.008Z,-0.79
2023-03-15T05:20:40.856Z,-0.72
2023-03-15T05:23:19.430Z,-0.69
2023-03-15T05:26:05.894Z,-0.79
2023-03-15T05:28:49.371Z,-0.92
2023-03-15T05:31:37.322Z,-0.93
2023-03-15T05:34:28.245Z,-0.90
2023-03-15T05:37:02.008Z,-0.80
2023-03-15T05:39:42.546Z,-0.78
2023-03-15T05:42:22.418Z,-0.79
2023-03-15T05:44:58.036Z,-0.75
2023-03-15T05:47:44.755Z,-0.94
2023-03-15T05:50:33.990Z,-0.90
2023-03-15T05:53:31.259Z,-0.99
2023-03-15T05:56:03.789Z,-0.96
2023-03-15T05:58:50.713Z,-0.89
2023-03-15T06:01:57.737Z,-0.90
2023-03-15T06:04:32.657Z,-0.76
2023-03-15T06:07:02.193Z,-0.69
2023-03-15T06:09:31.334Z,-0.70
2023-03-15T06:12:01.424Z,-0.75
2023-03-15T06:14:30.518Z,-0.68
2023-03-15T06:17:03.261Z,-0.65
2023-03-15T06:19:32.786Z,-0.49
2023-03-15T06:22:02.082Z,-0.28
2023-03-15T06:24:38.063Z,0.04
2023-03-15T06:27:08.257Z,0.16
2023-03-15T06:29:37.691Z,0.38
2023-03-15T06:32:07.017Z,0.62
2023-03-15T06:34:38.694Z,0.51
2023-03-15T06:37:07.669Z,0.31
2023-03-15T06:39:36.386Z,0.20
2023-03-15T06:42:07.073Z,0.06
2023-03-15T06:44:37.357Z,0.21
2023-03-15T06:47:09.735Z,0.90
2023-03-15T06:49:40.030Z,1.24
2023-03-15T06:52:09.600Z,1.53
2023-03-15T06:54:38.260Z,1.91
2023-03-15T06:57:06.839Z,1.94
2023-03-15T06:59:36.906Z,1.72
2023-03-15T07:02:05.646Z,1.57
2023-03-15T07:04:34.067Z,1.41
2023-03-15T07:07:02.494Z,1.00
2023-03-15T07:09:31.102Z,1.60
2023-03-15T07:11:59.468Z,1.78
2023-03-15T07:14:28.105Z,2.48
2023-03-15T07:16:57.822Z,2.08
2023-03-15T07:19:26.280Z,2.11
2023-03-15T07:21:55.032Z,2.46
2023-03-15T07:24:23.358Z,2.26
2023-03-15T07:26:56.277Z,2.73
2023-03-15T07:29:25.287Z,3.22
2023-03-15T07:31:54.002Z,1.98
2023-03-15T07:34:23.802Z,1.99
2023-03-15T07:36:52.130Z,2.64
2023-03-15T07:39:21.326Z,3.41
2023-03-15T07:41:49.654Z,3.87
2023-03-15T07:44:24.806Z,4.22
2023-03-15T07:46:55.066Z,3.48
2023-03-15T07:49:24.869Z,2.62
2023-03-15T07:51:53.204Z,2.36
2023-03-15T07:54:22.249Z,2.22
2023-03-15T07:56:50.899Z,2.33
2023-03-15T07:59:19.188Z,2.98
2023-03-15T08:01:47.560Z,3.54
2023-03-15T08:04:16.145Z,3.26
2023-03-15T08:06:45.878Z,3.89
2023-03-15T08:09:14.520Z,4.03
2023-03-15T08:11:44.640Z,3.36
2023-03-15T08:14:14.108Z,2.16
2023-03-15T08:16:42.566Z,2.65
2023-03-15T08:19:10.972Z,3.54
2023-03-15T08:21:40.064Z,3.66
2023-03-15T08:24:09.814Z,4.48
2023-03-15T08:26:38.296Z,4.74
2023-03-15T08:29:06.964Z,4.78
2023-03-15T08:31:35.867Z,4.35
2023-03-15T08:34:05.048Z,4.88
2023-03-15T08:36:33.785Z,4.61
2023-03-15T08:39:02.124Z,4.80
2023-03-15T08:41:32.122Z,4.82
2023-03-15T08:44:00.534Z,4.52
2023-03-15T08:46:29.711Z,3.73
2023-03-15T08:48:58.708Z,4.74
2023-03-15T08:51:28.191Z,5.37
2023-03-15T08:53:56.559Z,6.70
2023-03-15T08:56:24.845Z,6.79
2023-03-15T08:58:54.684Z,6.05
2023-03-15T09:01:23.171Z,6.17
2023-03-15T09:03:52.032Z,5.42
2023-03-15T09:06:20.330Z,4.31
2023-03-15T09:08:48.945Z,5.31
2023-03-15T09:11:17.392Z,6.25
2023-03-15T09:13:46.172Z,6.43
2023-03-15T09:16:16.414Z,6.23
2023-03-15T09:18:45.449Z,6.01
2023-03-15T09:21:13.831Z,5.48
2023-03-15T09:23:42.223Z,5.47
2023-03-15T09:26:10.993Z,4.28
2023-03-15T09:28:39.694Z,3.23
2023-03-15T09:31:08.795Z,3.49
2023-03-15T09:33:38.918Z,3.51
2023-03-15T09:36:08.484Z,4.70
2023-03-15T09:38:37.130Z,5.31
2023-03-15T09:41:06.367Z,4.22
2023-03-15T09:44:06.012Z,5.31
2023-03-15T09:46:42.576Z,4.97
2023-03-15T09:49:21.376Z,4.11
2023-03-15T09:52:00.397Z,5.20
2023-03-15T09:54:37.270Z,4.77
2023-03-15T09:57:16.457Z,4.93
2023-03-15T09:59:50.783Z,5.89
2023-03-15T10:02:25.756Z,4.17
2023-03-15T10:05:02.527Z,5.38
2023-03-15T10:07:32.177Z,4.70
2023-03-15T10:10:01.521Z,4.98
2023-03-15T10:12:40.783Z,6.13
2023-03-15T10:15:32.176Z,5.90
2023-03-15T10:18:27.898Z,4.91
2023-03-15T10:21:07.732Z,6.40
2023-03-15T10:23:47.818Z,8.75
2023-03-15T10:26:20.585Z,9.29
2023-03-15T10:28:50.663Z,8.26
2023-03-15T10:31:36.988Z,6.43
2023-03-15T10:34:12.576Z,7.69
2023-03-15T10:36:50.499Z,8.51
2023-03-15T10:39:20.018Z,8.15
2023-03-15T10:41:51.443Z,7.70
2023-03-15T10:44:25.886Z,7.98
2023-03-15T10:47:22.058Z,9.56
2023-03-15T10:49:51.564Z,9.05
2023-03-15T10:52:36.384Z,8.11
2023-03-15T10:55:13.528Z,6.80
2023-03-15T10:57:54.376Z,6.16
2023-03-15T11:00:31.164Z,5.69
2023-03-15T11:03:06.105Z,6.10
2023-03-15T11:05:42.957Z,5.80
2023-03-15T11:08:17.473Z,5.92
2023-03-15T11:10:48.205Z,5.75
2023-03-15T11:13:23.580Z,5.24
2023-03-15T11:16:05.315Z,5.27
2023-03-15T11:18:38.587Z,5.42
2023-03-15T11:21:11.509Z,5.30
2023-03-15T11:23:44.309Z,5.29
2023-03-15T11:26:31.544Z,5.10
2023-03-15T11:29:07.449Z,4.89
2023-03-15T11:31:37.666Z,4.70
2023-03-15T11:34:13.567Z,4.59
2023-03-15T11:36:49.083Z,4.73
2023-03-15T11:39:37.656Z,4.83
2023-03-15T11:42:15.691Z,5.06
2023-03-15T11:44:49.469Z,5.39
2023-03-15T11:47:32.322Z,5.19
2023-03-15T11:50:01.101Z,5.51
2023-03-15T11:52:31.013Z,6.25
2023-03-15T11:55:03.819Z,7.39
2023-03-15T11:57:44.859Z,7.66
2023-03-15T12:00:51.883Z,5.98
2023-03-15T12:03:43.306Z,6.02
2023-03-15T12:06:36.320Z,5.64
2023-03-15T12:09:49.057Z,5.77
2023-03-15T12:12:40.931Z,7.12
2023-03-15T12:15:47.515Z,7.82
2023-03-15T12:18:21.093Z,6.37
2023-03-15T12:21:08.648Z,5.62
2023-03-15T12:23:49.621Z,6.02
2023-03-15T12:26:32.443Z,6.23
2023-03-15T12:29:14.112Z,6.00
2023-03-15T12:31:58.414Z,6.05
2023-03-15T12:34:46.248Z,5.47
2023-03-15T12:37:20.247Z,5.95
2023-03-15T12:39:51.813Z,6.13
2023-03-15T12:43:08.996Z,5.93
2023-03-15T12:45:45.448Z,5.85
2023-03-15T12:48:32.149Z,5.28
2023-03-15T12:51:07.100Z,5.03
2023-03-15T12:53:50.771Z,4.80
2023-03-15T12:56:55.793Z,4.86
2023-03-15T12:59:36.551Z,4.61
2023-03-15T13:02:35.943Z,4.34
2023-03-15T13:05:36.273Z,4.65
2023-03-15T13:08:18.711Z,4.64
2023-03-15T13:11:04.241Z,4.51
2023-03-15T13:14:01.780Z,4.09
2023-03-15T13:16:38.216Z,4.44
2023-03-15T13:19:18.779Z,4.34
2023-03-15T13:22:19.242Z,4.23
2023-03-15T13:25:04.493Z,4.27
2023-03-15T13:27:51.147Z,4.51
2023-03-15T13:30:39.264Z,4.44
2023-03-15T13:33:19.822Z,4.46
2023-03-15T13:35:55.616Z,4.71
2023-03-15T13:38:30.895Z,4.91
2023-03-15T13:41:03.725Z,4.72
2023-03-15T13:43:35.445Z,4.79
2023-03-15T13:46:05.301Z,4.76
2023-03-15T13:48:36.834Z,4.80
2023-03-15T13:51:10.627Z,4.67
2023-03-15T13:53:49.370Z,4.78
2023-03-15T13:56:22.680Z,4.69
2023-03-15T13:58:53.072Z,4.49
2023-03-15T14:01:24.332Z,4.39
2023-03-15T14:04:01.845Z,4.50
2023-03-15T14:06:31.644Z,4.59
2023-03-15T14:09:11.649Z,4.39
2023-03-15T14:11:43.330Z,4.58
2023-03-15T14:14:25.398Z,4.25
2023-03-15T14:17:04.897Z,3.99
2023-03-15T14:19:36.924Z,4.04
2023-03-15T14:22:15.503Z,4.07
2023-03-15T14:24:49.692Z,4.08
2023-03-15T14:27:21.461Z,3.81
2023-03-15T14:29:53.697Z,3.75
2023-03-15T14:32:29.866Z,3.63
2023-03-15T14:35:05.156Z,3.90
2023-03-15T14:37:39.974Z,4.13
2023-03-15T14:40:34.793Z,4.21
2023-03-15T14:43:04.965Z,4.31
2023-03-15T14:45:35.211Z,4.43
2023-03-15T14:48:08.254Z,4.26
2023-03-15T14:50:41.541Z,4.22
2023-03-15T14:53:16.358Z,4.43
2023-03-15T14:55:46.183Z,4.25
2023-03-15T14:58:17.374Z,4.29
2023-03-15T15:00:49.675Z,4.28
2023-03-15T15:03:23.195Z,4.21
2023-03-15T15:05:51.914Z,4.09
2023-03-15T15:08:23.570Z,4.09
2023-03-15T15:10:57.451Z,3.93
2023-03-15T15:13:28.608Z,4.01
2023-03-15T15:15:58.022Z,4.11
2023-03-15T15:18:29.515Z,4.19
2023-03-15T15:21:01.054Z,4.07
2023-03-15T15:23:32.475Z,4.07
2023-03-15T15:26:05.533Z,4.23
2023-03-15T15:28:37.197Z,4.13
2023-03-15T15:31:08.059Z,4.18
2023-03-15T15:33:36.673Z,4.22
2023-03-15T15:36:12.397Z,4.07
2023-03-15T15:38:41.518Z,4.06
2023-03-15T15:41:17.432Z,4.27
2023-03-15T15:43:46.326Z,4.39
2023-03-15T15:46:15.024Z,4.31
2023-03-15T15:48:43.540Z,4.30
2023-03-15T15:51:29.000Z,4.27
2023-03-15T15:53:59.991Z,4.42
2023-03-15T15:56:36.078Z,4.59
2023-03-15T15:59:06.559Z,4.54
2023-03-15T16:01:35.517Z,4.54
2023-03-15T16:04:04.931Z,4.29
2023-03-15T16:06:34.303Z,4.49
2023-03-15T16:09:05.495Z,5.30
2023-03-15T16:11:35.970Z,5.24
2023-03-15T16:14:04.836Z,5.10
2023-03-15T16:16:33.648Z,5.12
2023-03-15T16:19:02.015Z,4.67
2023-03-15T16:21:35.847Z,4.53
2023-03-15T16:24:13.410Z,4.47
2023-03-15T16:26:45.160Z,4.43
2023-03-15T16:29:19.155Z,4.21
2023-03-15T16:31:48.327Z,4.11
2023-03-15T16:34:19.690Z,3.90
2023-03-15T16:36:54.837Z,3.58
2023-03-15T16:39:24.308Z,3.47
2023-03-15T16:41:54.075Z,3.39
2023-03-15T16:44:23.131Z,3.32
2023-03-15T16:46:52.275Z,3.21
2023-03-15T16:49:21.186Z,3.17
2023-03-15T16:51:54.491Z,3.25
2023-03-15T16:54:40.036Z,3.09
2023-03-15T16:57:19.903Z,3.20
2023-03-15T16:59:48.237Z,3.09
2023-03-15T17:02:21.509Z,3.12
2023-03-15T17:04:50.370Z,3.14
2023-03-15T17:07:21.064Z,3.02
2023-03-15T17:09:51.507Z,2.85
2023-03-15T17:12:26.043Z,2.68
2023-03-15T17:14:59.137Z,2.69
2023-03-15T17:17:33.151Z,2.72
2023-03-15T17:20:02.216Z,2.77
2023-03-15T17:22:30.889Z,2.60
2023-03-15T17:25:00.146Z,2.49
2023-03-15T17:27:35.637Z,2.58
2023-03-15T17:30:09.143Z,2.61
2023-03-15T17:32:37.915Z,2.40
2023-03-15T17:35:07.327Z,2.47
2023-03-15T17:37:37.574Z,2.36
2023-03-15T17:40:18.310Z,2.27
2023-03-15T17:42:48.430Z,2.16
2023-03-15T17:45:20.791Z,2.04
2023-03-15T17:47:49.832Z,1.94
2023-03-15T17:50:20.465Z,1.86
2023-03-15T17:52:56.022Z,1.82
2023-03-15T17:55:27.654Z,1.78
2023-03-15T17:57:57.836Z,1.78
2023-03-15T18:00:27.616Z,1.69
2023-03-15T18:02:56.772Z,1.53
2023-03-15T18:05:28.506Z,1.51
2023-03-15T18:07:59.810Z,1.43
2023-03-15T18:10:36.190Z,1.41
2023-03-15T18:13:07.505Z,1.38
2023-03-15T18:15:35.849Z,1.33
2023-03-15T18:18:06.266Z,1.28
2023-03-15T18:20:35.054Z,1.24
2023-03-15T18:23:04.139Z,1.21
2023-03-15T18:25:36.096Z,1.13
2023-03-15T18:28:05.815Z,1.15
2023-03-15T18:30:35.078Z,1.15
2023-03-15T18:33:04.348Z,1.06
2023-03-15T18:35:35.559Z,1.05
2023-03-15T18:38:04.942Z,1.03
2023-03-15T18:40:35.458Z,1.03
2023-03-15T18:43:05.614Z,0.99
2023-03-15T18:45:37.357Z,0.86
2023-03-15T18:48:06.872Z,0.70
2023-03-15T18:50:36.310Z,0.75
2023-03-15T18:53:06.248Z,0.73
2023-03-15T18:55:35.936Z,0.65
2023-03-15T18:58:09.014Z,0.56
2023-03-15T19:00:37.810Z,0.50
2023-03-15T19:03:07.572Z,0.43
2023-03-15T19:05:38.650Z,0.35
2023-03-15T19:08:07.733Z,0.34
2023-03-15T19:10:36.394Z,0.22
2023-03-15T19:13:06.411Z,0.04
2023-03-15T19:15:35.158Z,-0.04
2023-03-15T19:18:04.196Z,-0.08
2023-03-15T19:20:33.021Z,-0.13
2023-03-15T19:23:01.443Z,-0.32
2023-03-15T19:25:30.035Z,-0.46
2023-03-15T19:27:58.695Z,-0.67
2023-03-15T19:30:28.512Z,-0.85
2023-03-15T19:32:56.957Z,-1.04
2023-03-15T19:35:26.988Z,-1.16
2023-03-15T19:37:56.564Z,-1.26
2023-03-15T19:40:25.277Z,-1.40
2023-03-15T19:42:53.771Z,-1.42
2023-03-15T19:45:22.134Z,-1.49
2023-03-15T19:47:52.190Z,-1.49
2023-03-15T19:50:21.312Z,-1.52
2023-03-15T19:52:49.976Z,-1.43
2023-03-15T19:55:21.235Z,-1.28
2023-03-15T19:57:49.599Z,-1.19
2023-03-15T20:00:20.232Z,-1.32
2023-03-15T20:02:48.849Z,-1.46
2023-03-15T20:05:21.583Z,-1.59
2023-03-15T20:07:51.873Z,-1.52
2023-03-15T20:10:21.499Z,-1.40
2023-03-15T20:12:50.385Z,-1.50
2023-03-15T20:15:21.062Z,-1.72
2023-03-15T20:17:49.396Z,-1.84
2023-03-15T20:20:20.859Z,-1.92
2023-03-15T20:22:49.474Z,-1.86
2023-03-15T20:25:20.512Z,-1.83
2023-03-15T20:27:49.020Z,-1.84
2023-03-15T20:30:18.183Z,-2.00
2023-03-15T20:32:46.485Z,-2.03
2023-03-15T20:35:14.974Z,-2.08
2023-03-15T20:37:44.743Z,-2.04
2023-03-15T20:40:15.946Z,-1.97
2023-03-15T20:42:45.149Z,-1.95
2023-03-15T20:45:15.091Z,-1.91
2023-03-15T20:47:43.886Z,-1.92
2023-03-15T20:50:14.460Z,-1.95
2023-03-15T20:52:44.589Z,-2.00
2023-03-15T20:55:15.214Z,-1.99
2023-03-15T20:57:44.579Z,-2.00
2023-03-15T21:00:18.386Z,-1.88
2023-03-15T21:02:48.197Z,-1.92
2023-03-15T21:05:18.348Z,-1.96
2023-03-15T21:07:48.120Z,-2.03
2023-03-15T21:10:17.319Z,-2.07
2023-03-15T21:12:46.521Z,-1.98
2023-03-15T21:15:17.827Z,-1.91
2023-03-15T21:17:48.815Z,-1.78
2023-03-15T21:20:19.721Z,-1.79
2023-03-15T21:22:49.724Z,-1.89
2023-03-15T21:25:18.617Z,-2.02
2023-03-15T21:27:47.581Z,-2.14
2023-03-15T21:30:16.918Z,-2.23
2023-03-15T21:32:45.969Z,-2.27
2023-03-15T21:35:17.084Z,-2.31
2023-03-15T21:37:45.927Z,-2.34
2023-03-15T21:40:19.406Z,-2.28
2023-03-15T21:42:48.666Z,-2.20
2023-03-15T21:45:17.659Z,-2.13
2023-03-15T21:47:47.032Z,-2.08
2023-03-15T21:50:15.716Z,-2.14
2023-03-15T21:52:44.943Z,-2.11
2023-03-15T21:55:15.754Z,-2.23
2023-03-15T21:57:45.632Z,-2.26
2023-03-15T22:00:19.358Z,-2.43
2023-03-15T22:02:48.782Z,-2.44
2023-03-15T22:05:17.331Z,-2.55
2023-03-15T22:07:45.637Z,-2.61
2023-03-15T22:10:15.400Z,-2.63
2023-03-15T22:12:45.205Z,-2.76
2023-03-15T22:15:14.057Z,-2.74
2023-03-15T22:17:42.765Z,-2.81
2023-03-15T22:20:16.765Z,-2.79
2023-03-15T22:22:45.811Z,-3.02
2023-03-15T22:25:14.480Z,-3.11
2023-03-15T22:27:43.566Z,-3.23
2023-03-15T22:30:16.026Z,-3.23
2023-03-15T22:32:45.104Z,-3.22
2023-03-15T22:35:15.873Z,-3.20
2023-03-15T22:37:45.263Z,-3.15
2023-03-15T22:40:15.231Z,-3.18
2023-03-15T22:42:44.666Z,-3.16
2023-03-15T22:45:14.553Z,-3.10
2023-03-15T22:47:42.866Z,-3.18
2023-03-15T22:50:13.361Z,-3.26
2023-03-15T22:52:42.089Z,-3.20
2023-03-15T22:55:12.192Z,-3.26
2023-03-15T22:57:40.922Z,-3.38
2023-03-15T23:00:19.852Z,-3.32
2023-03-15T23:02:48.708Z,-3.32
2023-03-15T23:05:17.999Z,-3.34
2023-03-15T23:07:46.713Z,-3.41
2023-03-15T23:10:15.877Z,-3.48
2023-03-15T23:12:45.118Z,-3.54
2023-03-15T23:15:14.919Z,-3.55
2023-03-15T23:17:46.621Z,-3.58
2023-03-15T23:20:17.242Z,-3.69
2023-03-15T23:22:46.840Z,-3.59
2023-03-15T23:25:19.606Z,-3.59
2023-03-15T23:27:48.704Z,-3.50
2023-03-15T23:30:19.078Z,-3.59
2023-03-15T23:32:48.926Z,-3.61
2023-03-15T23:35:35.490Z,-3.69
2023-03-15T23:38:03.945Z,-3.59
2023-03-15T23:40:32.263Z,-3.65
2023-03-15T23:43:00.568Z,-3.74
2023-03-15T23:45:30.874Z,-3.73
2023-03-15T23:47:59.940Z,-3.68
2023-03-15T23:50:28.618Z,-3.67
2023-03-15T23:52:57.679Z,-3.72
2023-03-15T23:55:26.423Z,-3.63
2023-03-15T23:57:54.890Z,-3.60
